Aviation Digital Data Service (ADDS)

Output produced by METARs form (1739 UTC 27 May 2017)
found at http://www.aviationweather.gov/adds/metars/
 
HDAM 271600Z 07008KT 9999 FEW023 35/24 Q1006
HDAM 271700Z 2718/2818 VRB03KT 9/9 SCT020 
     BECMG 2806/2812 08010KT FEW023